Time;durP1;ratioP1;P1;durP2;ratioP2;P2;SDS_P1;SDS_P2;PMS_P1;PMS_P2;Temp;Humidity;BMP_temperature;BMP_pressure;BME280_temperature;BME280_humidity;BME280_pressure;Samples;Min_cycle;Max_cycle;Signal;HPM_P1;HPM_P2
2021/06/27 00:00:23;;;;;;;5.75;4.00;;;24.40;70.00;;;;;;5073462;28;20032;-75
2021/06/27 00:02:50;;;;;;;7.38;3.80;;;24.40;70.10;;;;;;5054573;28;20391;-75
2021/06/27 00:05:18;;;;;;;6.60;4.00;;;24.50;70.10;;;;;;5054529;28;20380;-75
2021/06/27 00:07:44;;;;;;;4.53;3.38;;;24.50;69.90;;;;;;5054524;28;20138;-75
2021/06/27 00:10:19;;;;;;;5.97;3.22;;;24.50;69.70;;;;;;5054236;28;20108;-76
2021/06/27 00:12:45;;;;;;;6.03;3.58;;;24.50;69.60;;;;;;5054245;28;20040;-76
2021/06/27 00:15:18;;;;;;;4.35;3.58;;;24.50;69.50;;;;;;5054136;28;20391;-75
2021/06/27 00:17:45;;;;;;;6.07;3.45;;;24.50;69.50;;;;;;5054330;28;20056;-75
2021/06/27 00:20:20;;;;;;;5.80;3.45;;;24.50;69.40;;;;;;5054373;28;20106;-75
2021/06/27 00:22:45;;;;;;;4.15;3.53;;;24.50;69.10;;;;;;5054095;28;20033;-75
2021/06/27 00:25:13;;;;;;;4.43;4.00;;;24.50;69.00;;;;;;5054362;28;20387;-74
2021/06/27 00:27:40;;;;;;;5.75;3.60;;;24.60;68.80;;;;;;5055403;28;20029;-75
2021/06/27 00:30:09;;;;;;;3.78;3.30;;;24.50;68.30;;;;;;5054320;28;20108;-75
2021/06/27 00:32:36;;;;;;;7.18;3.30;;;24.60;68.10;;;;;;5053976;28;20088;-75
2021/06/27 00:35:05;;;;;;;4.75;3.67;;;24.60;68.00;;;;;;5053741;28;20075;-75
2021/06/27 00:37:31;;;;;;;3.60;3.20;;;24.60;68.00;;;;;;5052152;28;20025;-75
2021/06/27 00:39:57;;;;;;;4.60;3.38;;;24.60;67.90;;;;;;5053864;28;20032;-75
2021/06/27 00:42:23;;;;;;;3.97;3.38;;;24.60;67.70;;;;;;5053950;28;20029;-75
2021/06/27 00:44:48;;;;;;;3.63;3.00;;;24.60;67.50;;;;;;5053486;28;20037;-75
2021/06/27 00:47:27;;;;;;;5.32;3.45;;;24.60;67.50;;;;;;5053668;28;20051;-75
2021/06/27 00:49:52;;;;;;;4.90;3.38;;;24.60;67.40;;;;;;5054178;28;20383;-75
2021/06/27 00:52:18;;;;;;;5.10;3.35;;;24.60;67.30;;;;;;5053495;28;20045;-75
2021/06/27 00:54:44;;;;;;;3.47;3.13;;;24.60;67.20;;;;;;5053152;28;20032;-75
2021/06/27 00:57:09;;;;;;;5.03;3.17;;;24.70;67.10;;;;;;5053767;28;20060;-75
2021/06/27 00:59:36;;;;;;;3.45;3.15;;;24.70;67.00;;;;;;5053164;28;20049;-75
2021/06/27 01:02:03;;;;;;;4.80;3.60;;;24.60;67.00;;;;;;5053934;28;20040;-75
2021/06/27 01:04:30;;;;;;;6.05;3.58;;;24.60;67.10;;;;;;5053644;28;20391;-75
2021/06/27 01:06:56;;;;;;;7.57;3.40;;;24.60;67.30;;;;;;5053831;28;20105;-75
2021/06/27 01:09:22;;;;;;;5.22;3.50;;;24.60;67.20;;;;;;5053176;28;20108;-75
2021/06/27 01:11:47;;;;;;;3.60;3.28;;;24.60;67.20;;;;;;5053401;28;20033;-75
2021/06/27 01:14:13;;;;;;;3.95;3.58;;;24.70;67.20;;;;;;5053373;28;20067;-76
2021/06/27 01:16:41;;;;;;;4.15;3.15;;;24.60;67.10;;;;;;5053011;28;20029;-75
2021/06/27 01:19:07;;;;;;;5.47;3.38;;;24.60;67.10;;;;;;5053091;28;20031;-75
2021/06/27 01:21:36;;;;;;;6.88;4.00;;;24.60;67.00;;;;;;5053209;28;20410;-74
2021/06/27 01:24:03;;;;;;;3.97;3.47;;;24.60;67.00;;;;;;5054017;28;20040;-75
2021/06/27 01:26:29;;;;;;;3.85;3.42;;;24.70;67.10;;;;;;5053142;28;20036;-75
2021/06/27 01:28:57;;;;;;;4.25;3.60;;;24.70;67.10;;;;;;5053235;28;20025;-75
2021/06/27 01:31:25;;;;;;;5.28;3.30;;;24.70;66.90;;;;;;5053210;28;20044;-75
2021/06/27 01:33:51;;;;;;;5.03;3.33;;;24.70;66.80;;;;;;5052754;28;20029;-75
2021/06/27 01:36:17;;;;;;;4.07;3.70;;;24.70;66.70;;;;;;5052858;28;20033;-75
2021/06/27 01:38:42;;;;;;;4.55;3.65;;;24.70;66.80;;;;;;5053067;28;20036;-75
2021/06/27 01:41:08;;;;;;;5.03;3.60;;;24.70;66.70;;;;;;5052827;28;20025;-75
2021/06/27 01:43:34;;;;;;;5.30;3.60;;;24.70;66.70;;;;;;5053081;28;20033;-76
2021/06/27 01:46:01;;;;;;;4.95;3.53;;;24.70;66.80;;;;;;5052983;28;20045;-75
2021/06/27 01:48:31;;;;;;;8.25;3.88;;;24.70;66.80;;;;;;5053000;28;20033;-75
2021/06/27 01:50:59;;;;;;;4.68;3.70;;;24.80;66.90;;;;;;5053069;28;20025;-75
2021/06/27 01:53:28;;;;;;;6.22;4.20;;;24.80;66.90;;;;;;5052821;28;20041;-75
2021/06/27 01:56:07;;;;;;;5.63;3.90;;;24.80;66.80;;;;;;5052939;28;20064;-75
2021/06/27 01:58:45;;;;;;;5.20;4.18;;;24.80;66.60;;;;;;5052910;28;20037;-76
2021/06/27 02:01:35;;;;;;;3.95;3.55;;;24.80;66.60;;;;;;5052904;28;20025;-75
2021/06/27 02:04:01;;;;;;;7.13;3.70;;;24.80;66.70;;;;;;5052818;28;20459;-75
2021/06/27 02:06:28;;;;;;;5.03;3.75;;;24.80;66.80;;;;;;5053066;28;20037;-75
2021/06/27 02:08:58;;;;;;;6.43;3.72;;;24.80;66.80;;;;;;5052790;28;20021;-75
2021/06/27 02:11:27;;;;;;;10.40;3.30;;;24.80;66.80;;;;;;5052690;28;20021;-76
2021/06/27 02:13:54;;;;;;;4.13;3.70;;;24.80;66.80;;;;;;5052761;28;20025;-75
2021/06/27 02:16:20;;;;;;;4.15;3.75;;;24.90;66.80;;;;;;5052845;28;20025;-75
2021/06/27 02:18:51;;;;;;;4.80;3.63;;;24.90;66.70;;;;;;5052426;28;20170;-76
2021/06/27 02:21:24;;;;;;;4.20;3.75;;;24.90;66.60;;;;;;5062624;28;20025;-75
2021/06/27 02:23:51;;;;;;;4.47;3.83;;;25.00;66.70;;;;;;5072425;28;20387;-75
2021/06/27 02:26:18;;;;;;;4.53;3.60;;;25.00;66.70;;;;;;5072813;28;20032;-75
2021/06/27 02:28:44;;;;;;;6.68;3.60;;;25.00;66.80;;;;;;5054893;28;20025;-76
2021/06/27 02:31:10;;;;;;;5.55;3.90;;;25.00;66.60;;;;;;5054688;28;20088;-76
2021/06/27 02:33:36;;;;;;;4.78;3.60;;;25.10;66.50;;;;;;5083848;28;20111;-75
2021/06/27 02:36:03;;;;;;;7.90;3.88;;;25.10;66.30;;;;;;5082865;28;20111;-76
2021/06/27 02:38:28;;;;;;;5.70;3.55;;;25.10;66.20;;;;;;5081321;28;20025;-76
2021/06/27 02:40:54;;;;;;;5.97;3.58;;;25.10;66.20;;;;;;5085111;28;20031;-76
2021/06/27 02:43:21;;;;;;;4.22;3.40;;;25.20;66.20;;;;;;5095841;28;20066;-75
2021/06/27 02:45:47;;;;;;;7.30;3.47;;;25.30;66.10;;;;;;5083931;28;20060;-76
2021/06/27 02:48:14;;;;;;;5.55;3.80;;;25.30;65.90;;;;;;5084598;28;20406;-75
2021/06/27 02:50:40;;;;;;;5.30;3.28;;;25.40;65.80;;;;;;5085698;28;20020;-75
2021/06/27 02:53:10;;;;;;;6.80;3.53;;;25.40;65.60;;;;;;5085162;28;20089;-75
2021/06/27 02:55:37;;;;;;;7.38;3.88;;;25.40;65.40;;;;;;5085860;28;20036;-75
2021/06/27 02:58:03;;;;;;;3.72;3.40;;;25.50;65.40;;;;;;5083649;28;20096;-75
2021/06/27 03:00:31;;;;;;;4.68;3.53;;;25.50;65.10;;;;;;5084826;28;20394;-76
2021/06/27 03:02:58;;;;;;;4.70;3.50;;;25.60;64.90;;;;;;5082865;28;20519;-76
2021/06/27 03:05:24;;;;;;;3.58;3.28;;;25.60;64.80;;;;;;5080834;28;20039;-74
2021/06/27 03:07:50;;;;;;;3.45;3.03;;;25.70;64.60;;;;;;5084810;28;20027;-75
2021/06/27 03:10:17;;;;;;;4.72;3.50;;;25.70;64.60;;;;;;5082874;28;20033;-75
2021/06/27 03:12:49;;;;;;;4.43;3.47;;;25.80;65.20;;;;;;5083228;28;20466;-75
2021/06/27 03:15:18;;;;;;;4.47;3.40;;;25.80;64.30;;;;;;5083839;28;20158;-75
2021/06/27 03:17:44;;;;;;;5.35;3.92;;;25.80;64.10;;;;;;5080432;28;20020;-75
2021/06/27 03:20:12;;;;;;;4.07;3.47;;;25.90;64.10;;;;;;5086000;28;20455;-75
2021/06/27 03:22:37;;;;;;;5.78;3.80;;;25.90;64.00;;;;;;5083286;28;20031;-76
2021/06/27 03:25:05;;;;;;;5.07;4.20;;;26.00;64.20;;;;;;5085371;28;20028;-75
2021/06/27 03:27:31;;;;;;;4.72;3.70;;;26.00;64.10;;;;;;5084102;28;20024;-75
2021/06/27 03:29:57;;;;;;;4.85;3.65;;;26.00;64.10;;;;;;5083173;28;20030;-76
2021/06/27 03:32:23;;;;;;;5.20;4.38;;;26.10;64.10;;;;;;5085419;28;20486;-75
2021/06/27 03:34:48;;;;;;;4.53;4.10;;;26.10;64.00;;;;;;5083509;28;20029;-76
2021/06/27 03:37:14;;;;;;;5.75;4.38;;;26.10;64.10;;;;;;5083606;28;20034;-75
2021/06/27 03:39:40;;;;;;;5.72;4.47;;;26.00;64.10;;;;;;5082977;28;20054;-76
2021/06/27 03:42:06;;;;;;;4.90;4.05;;;26.00;64.00;;;;;;5082503;28;20016;-75
2021/06/27 03:44:32;;;;;;;6.00;4.00;;;26.00;64.10;;;;;;5083751;28;20056;-75
2021/06/27 03:46:57;;;;;;;8.20;4.68;;;26.10;64.10;;;;;;5084527;28;20056;-76
2021/06/27 03:49:23;;;;;;;5.72;4.55;;;26.10;64.20;;;;;;5082838;28;20056;-77
2021/06/27 03:51:49;;;;;;;10.43;4.65;;;26.10;64.10;;;;;;5083899;28;20046;-77
2021/06/27 03:54:16;;;;;;;5.93;4.20;;;26.10;64.10;;;;;;5084116;28;20474;-74
2021/06/27 03:56:42;;;;;;;4.90;3.95;;;26.20;63.80;;;;;;5081197;28;20028;-74
2021/06/27 03:59:08;;;;;;;6.43;4.30;;;26.20;63.70;;;;;;5084037;28;20051;-75
2021/06/27 04:01:34;;;;;;;6.63;4.47;;;26.30;63.70;;;;;;5083767;28;20029;-75
2021/06/27 04:04:01;;;;;;;6.80;4.55;;;26.30;63.70;;;;;;5080999;28;20039;-75
2021/06/27 04:06:27;;;;;;;7.05;4.80;;;26.40;63.50;;;;;;5074757;28;20036;-75
2021/06/27 04:08:53;;;;;;;8.63;5.18;;;26.40;63.30;;;;;;5074307;28;20036;-75
2021/06/27 04:11:18;;;;;;;7.25;5.00;;;26.40;63.20;;;;;;5074418;28;20108;-75
2021/06/27 04:13:44;;;;;;;6.38;5.22;;;26.50;63.20;;;;;;5074043;28;20031;-75
2021/06/27 04:16:10;;;;;;;7.03;5.30;;;26.50;63.30;;;;;;5074311;28;20092;-75
2021/06/27 04:18:37;;;;;;;9.48;4.95;;;26.50;63.50;;;;;;5074147;28;20459;-75
2021/06/27 04:21:03;;;;;;;7.00;5.07;;;26.50;63.70;;;;;;5074677;28;20048;-74
2021/06/27 04:23:31;;;;;;;7.50;5.60;;;26.50;63.90;;;;;;5074489;28;20032;-75
2021/06/27 04:25:57;;;;;;;8.25;5.57;;;26.60;64.30;;;;;;5073980;28;20039;-76
2021/06/27 04:28:23;;;;;;;9.88;5.70;;;26.60;64.40;;;;;;5074068;28;20024;-75
2021/06/27 04:30:48;;;;;;;8.68;5.43;;;26.60;64.50;;;;;;5073906;28;20078;-75
2021/06/27 04:33:14;;;;;;;9.52;5.40;;;26.60;64.80;;;;;;5074094;28;20021;-75
2021/06/27 04:35:41;;;;;;;7.30;5.05;;;26.70;64.90;;;;;;5073807;28;20024;-77
2021/06/27 04:38:12;;;;;;;6.07;4.38;;;26.70;64.50;;;;;;5074104;28;20088;-74
2021/06/27 04:40:38;;;;;;;8.57;4.03;;;26.70;64.20;;;;;;5073776;28;20489;-75
2021/06/27 04:43:05;;;;;;;6.93;4.32;;;26.80;64.00;;;;;;5074109;28;20032;-75
2021/06/27 04:45:31;;;;;;;6.05;3.83;;;26.80;63.70;;;;;;5073558;28;20025;-74
2021/06/27 04:47:58;;;;;;;5.35;4.35;;;26.80;63.40;;;;;;5073651;28;20040;-75
2021/06/27 04:50:24;;;;;;;5.32;4.10;;;26.80;63.00;;;;;;5073821;28;20028;-75
2021/06/27 04:52:52;;;;;;;5.00;4.45;;;26.80;62.80;;;;;;5073389;28;20052;-75
2021/06/27 04:55:19;;;;;;;5.50;4.60;;;26.80;62.70;;;;;;5072406;28;20036;-75
2021/06/27 04:57:45;;;;;;;6.28;4.38;;;26.80;62.60;;;;;;5060719;28;20028;-76
2021/06/27 05:00:12;;;;;;;6.45;4.40;;;26.80;62.40;;;;;;5059439;28;20021;-76
2021/06/27 05:02:38;;;;;;;5.70;4.50;;;26.90;62.30;;;;;;5067028;28;20036;-77
2021/06/27 05:05:04;;;;;;;9.85;4.68;;;26.90;62.40;;;;;;5055161;28;20112;-75
2021/06/27 05:07:30;;;;;;;6.03;4.38;;;26.90;62.40;;;;;;5059899;28;20040;-76
2021/06/27 05:09:57;;;;;;;5.18;3.97;;;26.90;62.40;;;;;;5072003;28;20519;-75
2021/06/27 05:12:27;;;;;;;6.00;4.85;;;27.00;62.30;;;;;;5073556;28;20067;-75
2021/06/27 05:14:54;;;;;;;7.07;5.13;;;26.90;62.00;;;;;;5073449;28;20036;-75
2021/06/27 05:17:20;;;;;;;5.53;4.57;;;27.00;62.20;;;;;;5073288;28;20064;-75
2021/06/27 05:19:47;;;;;;;7.93;4.72;;;27.00;62.00;;;;;;5073340;28;20028;-76
2021/06/27 05:22:13;;;;;;;4.85;4.43;;;27.00;61.90;;;;;;5088540;28;20035;-75
2021/06/27 05:24:40;;;;;;;9.00;4.82;;;27.10;62.00;;;;;;5073200;28;20120;-77
2021/06/27 05:27:06;;;;;;;5.07;4.57;;;27.10;62.00;;;;;;5073290;28;20075;-75
2021/06/27 05:29:32;;;;;;;5.88;4.55;;;27.10;61.70;;;;;;5073254;28;20036;-75
2021/06/27 05:31:57;;;;;;;10.75;5.28;;;27.10;61.70;;;;;;5073015;28;20033;-75
2021/06/27 05:34:23;;;;;;;6.88;4.85;;;27.10;61.70;;;;;;5073199;28;20037;-75
2021/06/27 05:36:49;;;;;;;9.45;4.80;;;27.10;61.70;;;;;;5072665;28;20024;-76
2021/06/27 05:39:14;;;;;;;6.25;5.13;;;27.10;61.80;;;;;;5073188;28;20024;-76
2021/06/27 05:41:41;;;;;;;7.57;5.38;;;27.00;61.90;;;;;;5072821;28;20025;-76
2021/06/27 05:44:07;;;;;;;5.88;5.05;;;27.00;62.20;;;;;;5073126;28;20036;-77
2021/06/27 05:46:34;;;;;;;8.68;5.38;;;26.90;62.50;;;;;;5073110;28;20032;-76
2021/06/27 05:49:00;;;;;;;6.85;5.13;;;26.80;62.70;;;;;;5073056;28;20037;-76
2021/06/27 05:51:25;;;;;;;6.75;5.22;;;26.80;63.20;;;;;;5072580;28;20386;-76
2021/06/27 05:53:52;;;;;;;6.50;5.82;;;26.80;63.50;;;;;;5073163;28;20029;-76
2021/06/27 05:56:19;;;;;;;9.32;5.25;;;26.70;63.80;;;;;;5072826;28;20029;-76
2021/06/27 05:58:46;;;;;;;6.90;5.65;;;26.70;64.10;;;;;;5072927;28;20386;-76
2021/06/27 06:01:14;;;;;;;8.65;5.57;;;26.70;64.30;;;;;;5072781;28;20060;-76
2021/06/27 06:03:40;;;;;;;8.70;5.38;;;26.80;64.40;;;;;;5088898;28;20021;-75
2021/06/27 06:06:09;;;;;;;6.25;5.65;;;26.80;64.90;;;;;;5075104;28;20036;-76
2021/06/27 06:08:35;;;;;;;7.13;5.80;;;26.90;64.40;;;;;;5076604;28;20095;-76
2021/06/27 06:11:00;;;;;;;7.43;5.72;;;26.80;64.40;;;;;;5076715;28;20521;-76
2021/06/27 06:13:26;;;;;;;6.30;5.70;;;26.90;64.60;;;;;;5075450;28;20033;-76
2021/06/27 06:15:52;;;;;;;6.97;5.50;;;26.90;64.60;;;;;;5075214;28;20029;-77
2021/06/27 06:18:18;;;;;;;9.20;5.85;;;26.90;64.60;;;;;;5076600;28;20107;-76
2021/06/27 06:20:43;;;;;;;6.47;5.35;;;26.90;64.60;;;;;;5076276;28;20029;-76
2021/06/27 06:23:09;;;;;;;9.98;5.47;;;26.80;64.70;;;;;;5066524;28;20021;-75
2021/06/27 06:25:36;;;;;;;7.93;5.60;;;26.70;64.80;;;;;;5055972;28;20490;-76
2021/06/27 06:28:02;;;;;;;7.03;5.38;;;26.80;65.20;;;;;;5056386;28;20041;-76
2021/06/27 06:30:28;;;;;;;6.93;5.85;;;26.70;65.20;;;;;;5059054;28;20032;-76
2021/06/27 06:32:53;;;;;;;7.50;5.38;;;26.80;65.30;;;;;;5076161;28;20036;-76
2021/06/27 06:35:19;;;;;;;9.73;5.90;;;26.70;65.50;;;;;;5074750;28;20028;-76
2021/06/27 06:37:45;;;;;;;8.85;6.30;;;26.70;65.80;;;;;;5056057;28;20040;-75
2021/06/27 06:40:12;;;;;;;7.93;6.05;;;26.60;66.10;;;;;;5055722;28;20021;-74
2021/06/27 06:42:37;;;;;;;8.43;6.13;;;26.70;66.70;;;;;;5056106;28;20108;-75
2021/06/27 06:45:04;;;;;;;6.57;5.88;;;26.70;66.60;;;;;;5055541;28;20116;-75
2021/06/27 06:47:30;;;;;;;8.68;5.80;;;26.80;66.80;;;;;;5055769;28;20125;-75
2021/06/27 06:49:56;;;;;;;9.95;6.68;;;26.70;66.80;;;;;;5055902;28;20061;-75
2021/06/27 06:52:22;;;;;;;8.82;6.45;;;26.80;67.00;;;;;;5055440;28;20544;-75
2021/06/27 06:54:49;;;;;;;7.03;6.32;;;26.80;67.20;;;;;;5071368;28;20513;-75
2021/06/27 06:57:15;;;;;;;6.75;6.05;;;26.80;67.10;;;;;;5055890;28;20021;-74
2021/06/27 06:59:41;;;;;;;11.45;6.78;;;26.80;67.10;;;;;;5055868;28;20110;-75
2021/06/27 07:02:07;;;;;;;8.45;6.63;;;26.90;67.10;;;;;;5055286;28;20483;-78
2021/06/27 07:04:33;;;;;;;7.75;6.68;;;26.90;67.10;;;;;;5055109;28;20506;-75
2021/06/27 07:06:58;;;;;;;9.45;6.55;;;26.90;67.40;;;;;;5055600;28;20033;-76
2021/06/27 07:09:24;;;;;;;10.60;6.70;;;26.90;67.50;;;;;;5055315;28;20025;-76
2021/06/27 07:11:50;;;;;;;9.07;6.72;;;26.80;67.50;;;;;;5055316;28;20026;-76
2021/06/27 07:14:15;;;;;;;12.55;6.70;;;26.80;67.60;;;;;;5055590;28;20025;-75
2021/06/27 07:16:41;;;;;;;10.48;7.03;;;26.80;67.90;;;;;;5054403;28;20102;-75
2021/06/27 07:19:07;;;;;;;8.95;6.63;;;26.80;67.90;;;;;;5055136;28;20025;-75
2021/06/27 07:21:33;;;;;;;9.93;6.55;;;26.80;68.00;;;;;;5052938;28;20053;-74
2021/06/27 07:23:58;;;;;;;11.98;7.05;;;26.80;67.70;;;;;;5054993;28;20035;-74
2021/06/27 07:26:24;;;;;;;12.77;6.65;;;26.80;67.80;;;;;;5055323;28;20055;-76
2021/06/27 07:28:50;;;;;;;9.50;6.90;;;26.80;68.00;;;;;;5054827;28;20025;-76
2021/06/27 07:31:17;;;;;;;8.50;7.03;;;26.70;68.00;;;;;;5055074;28;20055;-75
2021/06/27 07:33:42;;;;;;;10.85;6.78;;;26.70;68.00;;;;;;5083678;28;20459;-76
2021/06/27 07:36:08;;;;;;;8.88;6.75;;;26.60;67.90;;;;;;5082412;28;20044;-76
2021/06/27 07:38:36;;;;;;;11.18;7.20;;;26.50;68.10;;;;;;5082661;28;20364;-75
2021/06/27 07:41:01;;;;;;;8.55;6.50;;;26.60;68.20;;;;;;5083620;28;20035;-76
2021/06/27 07:43:27;;;;;;;9.88;6.40;;;26.60;68.40;;;;;;5084178;28;20029;-76
2021/06/27 07:45:53;;;;;;;10.45;7.18;;;26.70;68.10;;;;;;5079341;28;20043;-76
2021/06/27 07:48:19;;;;;;;7.13;6.32;;;26.70;68.00;;;;;;5074667;28;20048;-75
2021/06/27 07:50:45;;;;;;;7.72;6.90;;;26.80;68.20;;;;;;5085429;28;20020;-76
2021/06/27 07:53:11;;;;;;;10.38;6.50;;;26.80;67.90;;;;;;5080952;28;20044;-76
2021/06/27 07:55:37;;;;;;;10.73;6.53;;;27.00;67.70;;;;;;5082735;28;20386;-75
2021/06/27 07:58:03;;;;;;;12.35;6.93;;;27.00;67.70;;;;;;5083775;28;20035;-75
2021/06/27 08:00:30;;;;;;;11.82;7.57;;;27.20;67.90;;;;;;5082269;28;20386;-75
2021/06/27 08:02:59;;;;;;;9.27;7.72;;;27.30;67.90;;;;;;5084002;28;20024;-75
2021/06/27 08:05:25;;;;;;;8.80;6.78;;;27.30;67.80;;;;;;5083765;28;20170;-76
2021/06/27 08:07:51;;;;;;;8.40;7.50;;;27.20;67.80;;;;;;5082093;28;20024;-77
2021/06/27 08:10:17;;;;;;;8.85;6.82;;;27.10;68.20;;;;;;5083722;28;20057;-77
2021/06/27 08:12:43;;;;;;;13.52;7.38;;;27.10;68.60;;;;;;5083503;28;20024;-75
2021/06/27 08:15:21;;;;;;;10.25;7.18;;;27.10;68.80;;;;;;5080759;28;20033;-75
2021/06/27 08:17:49;;;;;;;7.20;6.47;;;27.20;67.90;;;;;;5082132;28;20560;-76
2021/06/27 08:20:15;;;;;;;9.05;6.45;;;27.20;67.70;;;;;;5079553;28;20032;-76
2021/06/27 08:22:41;;;;;;;8.30;6.20;;;27.30;67.60;;;;;;5083109;28;20020;-76
2021/06/27 08:25:08;;;;;;;10.00;7.10;;;27.60;67.20;;;;;;5083689;28;20032;-76
2021/06/27 08:27:34;;;;;;;8.73;6.53;;;27.90;66.80;;;;;;5079140;28;20033;-76
2021/06/27 08:30:00;;;;;;;8.02;6.20;;;28.20;65.90;;;;;;5082700;28;20020;-77
2021/06/27 08:32:26;;;;;;;8.85;6.82;;;28.50;65.00;;;;;;5083538;28;20034;-77
2021/06/27 08:34:51;;;;;;;10.02;6.35;;;28.80;64.50;;;;;;5081731;28;20025;-77
2021/06/27 08:37:17;;;;;;;7.68;6.57;;;29.10;64.50;;;;;;5067637;28;20083;-77
2021/06/27 08:39:43;;;;;;;11.35;6.18;;;29.40;63.90;;;;;;5067042;28;20033;-77
2021/06/27 08:42:08;;;;;;;7.72;6.07;;;29.70;63.50;;;;;;5053953;28;20039;-74
2021/06/27 08:44:35;;;;;;;7.68;6.10;;;30.10;62.90;;;;;;5053580;28;20115;-75
2021/06/27 08:47:03;;;;;;;8.23;6.35;;;30.40;62.10;;;;;;5066491;28;20367;-76
2021/06/27 08:49:29;;;;;;;9.52;6.18;;;30.60;61.50;;;;;;5073651;28;20040;-76
2021/06/27 08:51:58;;;;;;;8.52;6.32;;;30.70;61.00;;;;;;5073235;28;20044;-76
2021/06/27 08:54:24;;;;;;;7.53;6.82;;;30.60;60.30;;;;;;5073861;28;20387;-76
2021/06/27 08:56:50;;;;;;;7.75;6.25;;;30.50;60.40;;;;;;5072820;28;20017;-75
2021/06/27 08:59:15;;;;;;;8.80;6.47;;;30.40;60.70;;;;;;5058507;28;20133;-75
2021/06/27 09:01:41;;;;;;;8.00;5.85;;;30.40;60.90;;;;;;5063790;28;20118;-76
2021/06/27 09:04:07;;;;;;;6.72;5.95;;;30.40;60.60;;;;;;5073461;28;20455;-76
2021/06/27 09:06:37;;;;;;;11.90;6.57;;;30.30;60.70;;;;;;5078218;28;20064;-76
2021/06/27 09:09:12;;;;;;;8.27;6.38;;;30.40;60.80;;;;;;5078881;28;20471;-74
2021/06/27 09:11:39;;;;;;;7.43;6.72;;;30.60;60.50;;;;;;5078649;28;20442;-77
2021/06/27 09:14:32;;;;;;;7.13;6.35;;;30.90;60.10;;;;;;5088605;28;20024;-75
2021/06/27 09:17:08;;;;;;;8.40;6.70;;;31.30;59.60;;;;;;5083111;28;20016;-74
2021/06/27 09:19:52;;;;;;;6.43;5.70;;;31.70;58.70;;;;;;5075609;28;20399;-77
2021/06/27 09:22:41;;;;;;;;;;;32.10;58.10;;;;;;5079726;28;20021;-76
2021/06/27 09:25:28;;;;;;;6.80;5.93;;;32.30;58.40;;;;;;5079635;28;20278;-75
2021/06/27 09:28:10;;;;;;;8.18;5.70;;;32.60;57.30;;;;;;5052921;28;20041;-75
2021/06/27 09:30:37;;;;;;;7.07;6.35;;;32.80;56.70;;;;;;5082677;28;20024;-76
2021/06/27 09:33:07;;;;;;;7.30;6.55;;;33.00;56.00;;;;;;5080645;28;20497;-75
2021/06/27 09:35:51;;;;;;;8.68;6.88;;;33.30;55.60;;;;;;5076534;28;20032;-80
2021/06/27 09:41:48;;;;;;;9.10;6.35;;;33.40;54.50;;;;;;5054772;28;20084;-74
2021/06/27 09:44:15;;;;;;;10.40;6.40;;;33.10;54.90;;;;;;5054108;28;20040;-76
2021/06/27 09:46:44;;;;;;;6.05;5.55;;;32.70;55.30;;;;;;5054786;28;20032;-80
2021/06/27 09:49:28;;;;;;;9.60;6.07;;;32.70;55.90;;;;;;5054933;28;20112;-78
2021/06/27 09:51:56;;;;;;;6.22;5.65;;;33.10;55.70;;;;;;5053816;28;20467;-75
2021/06/27 09:54:26;;;;;;;9.55;6.75;;;33.50;55.40;;;;;;5055624;28;20054;-75
2021/06/27 09:56:53;;;;;;;9.57;6.68;;;34.00;54.80;;;;;;5055261;28;20021;-81
2021/06/27 09:59:33;;;;;;;7.15;6.28;;;34.50;53.90;;;;;;5055572;28;20021;-75
2021/06/27 10:01:59;;;;;;;8.07;6.65;;;35.00;53.00;;;;;;5054588;28;20462;-76
2021/06/27 10:04:30;;;;;;;7.65;6.45;;;35.30;52.20;;;;;;5055408;28;20032;-77
2021/06/27 10:06:58;;;;;;;8.60;6.20;;;35.70;51.70;;;;;;5054854;28;20398;-76
2021/06/27 10:09:28;;;;;;;6.88;6.18;;;36.00;51.10;;;;;;5054426;28;20023;-76
2021/06/27 10:12:01;;;;;;;6.25;5.72;;;36.40;50.50;;;;;;5055757;28;20049;-77
2021/06/27 10:14:31;;;;;;;7.70;6.38;;;36.70;49.70;;;;;;5056470;28;20129;-76
2021/06/27 10:16:58;;;;;;;6.72;6.05;;;36.70;49.20;;;;;;5056266;28;20079;-76
2021/06/27 10:19:26;;;;;;;9.05;5.95;;;36.90;49.00;;;;;;5056667;28;20051;-77
2021/06/27 10:21:54;;;;;;;9.43;6.28;;;37.10;49.00;;;;;;5055201;28;20025;-76
2021/06/27 10:24:21;;;;;;;8.18;6.28;;;37.20;48.60;;;;;;5055128;28;20021;-77
2021/06/27 10:26:47;;;;;;;6.78;5.97;;;37.20;48.50;;;;;;5052238;28;20029;-77
2021/06/27 10:29:14;;;;;;;6.60;5.85;;;37.30;48.70;;;;;;5055783;28;20481;-76
2021/06/27 10:31:40;;;;;;;6.93;5.90;;;37.60;48.30;;;;;;5056480;28;20112;-75
2021/06/27 10:34:06;;;;;;;8.13;5.85;;;37.80;47.70;;;;;;5055870;28;20049;-75
2021/06/27 10:36:33;;;;;;;9.75;6.00;;;37.60;47.50;;;;;;5055956;28;20340;-75
2021/06/27 10:39:02;;;;;;;6.85;6.10;;;37.70;47.80;;;;;;5056112;28;20481;-75
2021/06/27 10:41:48;;;;;;;6.47;5.78;;;37.90;47.40;;;;;;5055745;28;20021;-74
2021/06/27 10:44:13;;;;;;;6.63;5.65;;;37.90;47.30;;;;;;5057408;28;20052;-75
2021/06/27 10:46:40;;;;;;;6.45;5.80;;;37.90;47.60;;;;;;5068400;28;20098;-76
2021/06/27 10:49:27;;;;;;;6.88;5.57;;;37.80;47.50;;;;;;5076174;28;20025;-76
2021/06/27 10:52:06;;;;;;;7.25;5.45;;;38.00;47.10;;;;;;5075693;28;20398;-76
2021/06/27 10:54:36;;;;;;;6.30;5.32;;;38.30;46.50;;;;;;5075981;28;20029;-76
2021/06/27 10:57:07;;;;;;;8.70;5.70;;;38.70;46.50;;;;;;5075794;28;20037;-81
2021/06/27 10:59:39;;;;;;;7.07;5.65;;;39.00;46.70;;;;;;5074940;28;20469;-77
2021/06/27 11:02:38;;;;;;;6.22;5.47;;;38.90;45.70;;;;;;5075756;28;20023;-77
2021/06/27 11:05:29;;;;;;;6.63;5.28;;;38.60;46.00;;;;;;5071997;28;20071;-75
2021/06/27 11:07:56;;;;;;;6.78;5.53;;;38.30;46.00;;;;;;5075514;28;20489;-76
2021/06/27 11:10:21;;;;;;;7.28;5.70;;;38.10;46.40;;;;;;5074766;28;20051;-77
2021/06/27 11:13:03;;;;;;;6.38;5.60;;;38.10;46.60;;;;;;5053690;28;20041;-76
2021/06/27 11:15:58;;;;;;;7.65;5.47;;;38.30;46.30;;;;;;5050745;28;20487;-75
2021/06/27 11:18:40;;;;;;;7.50;5.18;;;38.80;46.10;;;;;;5055737;28;20032;-76
2021/06/27 11:21:18;;;;;;;6.07;5.47;;;39.50;45.60;;;;;;5045517;28;20120;-75
2021/06/27 11:23:47;;;;;;;5.88;4.78;;;40.10;45.10;;;;;;5040332;28;20025;-75
2021/06/27 11:26:41;;;;;;;5.75;5.15;;;40.40;44.30;;;;;;5036542;28;20140;-75
2021/06/27 11:29:21;;;;;;;6.43;5.05;;;40.80;43.90;;;;;;5053803;28;20383;-76
2021/06/27 11:32:09;;;;;;;7.13;5.03;;;40.90;43.70;;;;;;5054932;28;20040;-76
2021/06/27 11:34:36;;;;;;;6.22;5.28;;;40.60;43.80;;;;;;5035115;28;20029;-75
2021/06/27 11:37:19;;;;;;;7.53;5.68;;;40.50;44.00;;;;;;5034827;28;20108;-76
2021/06/27 11:39:46;;;;;;;;;;;40.00;43.90;;;;;;5035335;28;20040;-75
2021/06/27 11:42:27;;;;;;;6.55;4.80;;;39.50;44.60;;;;;;5050474;28;20291;-75
2021/06/27 11:45:11;;;;;;;6.68;5.45;;;39.00;45.10;;;;;;5035201;28;20083;-75
2021/06/27 11:47:50;;;;;;;6.18;5.22;;;38.30;45.60;;;;;;5034932;28;20053;-75
2021/06/27 11:50:16;;;;;;;6.60;5.82;;;37.60;46.50;;;;;;5034663;28;20357;-75
2021/06/27 11:52:42;;;;;;;7.43;5.82;;;36.90;47.20;;;;;;5035026;28;20060;-75
2021/06/27 11:55:09;;;;;;;7.50;5.43;;;36.30;48.00;;;;;;5034427;28;20083;-75
2021/06/27 11:57:39;;;;;;;6.82;5.75;;;35.70;48.90;;;;;;5034510;28;20080;-75
2021/06/27 12:00:07;;;;;;;6.10;5.47;;;35.10;49.60;;;;;;5034681;28;20022;-76
2021/06/27 12:02:33;;;;;;;6.70;5.57;;;34.60;50.30;;;;;;5034486;28;20127;-75
2021/06/27 12:05:01;;;;;;;6.50;5.90;;;34.20;50.90;;;;;;5033872;28;20040;-76
2021/06/27 12:07:45;;;;;;;9.95;5.95;;;33.80;51.60;;;;;;5050026;28;20033;-75
2021/06/27 12:10:20;;;;;;;6.18;5.68;;;33.50;52.20;;;;;;5034625;28;20036;-76
2021/06/27 12:13:03;;;;;;;8.15;6.13;;;33.10;52.90;;;;;;5034406;28;20022;-76
2021/06/27 12:15:42;;;;;;;6.85;6.15;;;32.80;53.50;;;;;;5034658;28;20033;-76
2021/06/27 12:18:19;;;;;;;8.57;6.53;;;32.50;54.10;;;;;;5049534;28;20060;-75
2021/06/27 12:20:51;;;;;;;7.20;6.43;;;32.20;54.20;;;;;;5034097;28;20112;-75
2021/06/27 12:23:20;;;;;;;7.63;5.93;;;32.00;54.70;;;;;;5034180;28;20056;-74
2021/06/27 12:25:51;;;;;;;6.57;5.93;;;31.70;55.20;;;;;;5034217;28;20075;-75
2021/06/27 12:28:33;;;;;;;6.88;6.13;;;31.50;55.90;;;;;;5033803;28;20060;-74
2021/06/27 12:31:05;;;;;;;8.80;5.93;;;31.30;56.00;;;;;;5033932;28;20017;-77
2021/06/27 12:33:36;;;;;;;12.82;6.10;;;31.20;56.30;;;;;;5033994;28;20017;-75
2021/06/27 12:36:09;;;;;;;6.50;5.90;;;31.10;56.30;;;;;;5033725;28;20029;-75
2021/06/27 12:38:36;;;;;;;6.57;5.90;;;31.30;56.10;;;;;;5033846;28;20076;-75
2021/06/27 12:41:05;;;;;;;8.68;5.53;;;31.50;55.90;;;;;;5034080;28;20021;-75
2021/06/27 12:43:33;;;;;;;9.80;5.93;;;31.80;55.40;;;;;;5033656;28;20034;-75
2021/06/27 12:46:29;;;;;;;9.43;5.85;;;32.20;55.30;;;;;;5033807;28;20079;-76
2021/06/27 12:49:01;;;;;;;5.78;5.20;;;32.70;54.90;;;;;;5029036;28;20068;-75
2021/06/27 12:51:30;;;;;;;8.02;5.88;;;33.40;54.30;;;;;;5033009;28;20022;-76
2021/06/27 12:53:57;;;;;;;6.63;6.00;;;33.90;53.10;;;;;;5033638;28;20080;-75
2021/06/27 12:56:23;;;;;;;9.43;5.75;;;34.20;52.50;;;;;;5033971;28;20091;-75